createdAt,value
2024-01-19T00:00:30.661Z,97500.59
2024-01-19T00:02:57.414Z,97447.38
2024-01-19T00:05:24.881Z,97552.19
2024-01-19T00:07:51.802Z,97547.03
2024-01-19T00:10:18.786Z,97513.03
2024-01-19T00:12:45.760Z,97545.84
2024-01-19T00:15:12.462Z,97530.63
2024-01-19T00:17:39.512Z,97554.94
2024-01-19T00:20:10.167Z,97577.38
2024-01-19T00:22:37.449Z,97560.41
2024-01-19T00:25:04.650Z,97569.06
2024-01-19T00:27:31.607Z,97580.81
2024-01-19T00:29:58.657Z,97585.53
2024-01-19T00:32:25.592Z,97517.84
2024-01-19T00:34:52.634Z,97555.91
2024-01-19T00:37:19.755Z,97587.63
2024-01-19T00:39:46.604Z,97590.78
2024-01-19T00:42:13.609Z,97569.91
2024-01-19T00:44:40.575Z,97598.41
2024-01-19T00:47:07.459Z,97544.63
2024-01-19T00:49:34.920Z,97618.88
2024-01-19T00:52:02.322Z,97592.31
2024-01-19T00:54:29.685Z,97614.00
2024-01-19T00:56:56.779Z,97621.94
2024-01-19T00:59:23.672Z,97588.78
2024-01-19T01:01:50.542Z,97603.56
2024-01-19T01:04:17.759Z,97624.16
2024-01-19T01:06:44.723Z,97628.56
2024-01-19T01:09:12.618Z,97621.50
2024-01-19T01:11:39.736Z,97533.22
2024-01-19T01:14:06.497Z,97622.47
2024-01-19T01:16:34.889Z,97481.53
2024-01-19T01:19:02.348Z,97569.94
2024-01-19T01:21:29.428Z,97630.34
2024-01-19T01:23:56.397Z,97612.25
2024-01-19T01:26:23.630Z,97553.22
2024-01-19T01:28:50.533Z,97658.59
2024-01-19T01:31:17.499Z,97667.41
2024-01-19T01:33:44.860Z,97604.31
2024-01-19T01:36:11.888Z,97666.97
2024-01-19T01:38:38.856Z,97633.84
2024-01-19T01:41:06.064Z,97608.13
2024-01-19T01:43:32.945Z,97623.13
2024-01-19T01:45:59.993Z,97648.47
2024-01-19T01:48:27.744Z,97636.84
2024-01-19T01:50:57.197Z,97664.31
2024-01-19T01:53:24.812Z,97617.66
2024-01-19T01:55:52.917Z,97660.22
2024-01-19T01:58:20.083Z,97637.22
2024-01-19T02:00:48.468Z,97558.91
2024-01-19T02:03:15.716Z,97672.44
2024-01-19T02:05:42.821Z,97644.59
2024-01-19T02:08:10.005Z,97673.78
2024-01-19T02:10:37.698Z,97664.69
2024-01-19T02:13:05.037Z,97580.66
2024-01-19T02:15:31.884Z,97604.13
2024-01-19T02:17:59.148Z,97638.78
2024-01-19T02:20:26.080Z,97672.19
2024-01-19T02:22:53.999Z,97627.91
2024-01-19T02:25:21.764Z,97674.09
2024-01-19T02:27:50.636Z,97664.81
2024-01-19T02:30:17.789Z,97683.25
2024-01-19T02:32:44.866Z,97709.13
2024-01-19T02:35:11.805Z,97699.59
2024-01-19T02:37:38.776Z,97699.47
2024-01-19T02:40:06.703Z,97714.09
2024-01-19T02:42:33.507Z,97350.28
2024-01-19T02:45:03.280Z,97675.06
2024-01-19T02:47:31.773Z,97731.03
2024-01-19T02:49:59.759Z,97716.25
2024-01-19T02:52:26.484Z,97658.41
2024-01-19T02:54:53.531Z,97738.84
2024-01-19T02:57:20.343Z,97723.56
2024-01-19T02:59:47.278Z,97747.56
2024-01-19T03:02:14.883Z,97740.09
2024-01-19T03:04:41.691Z,97727.88
2024-01-19T03:07:08.893Z,97757.72
2024-01-19T03:09:35.913Z,97756.56
2024-01-19T03:12:02.898Z,97420.63
2024-01-19T03:14:29.983Z,97765.25
2024-01-19T03:16:57.424Z,97723.91
2024-01-19T03:19:24.340Z,97761.41
2024-01-19T03:21:51.856Z,97754.91
2024-01-19T03:24:19.049Z,97774.59
2024-01-19T03:26:47.397Z,97741.28
2024-01-19T03:29:14.260Z,97782.59
2024-01-19T03:31:41.462Z,97780.16
2024-01-19T03:34:08.484Z,97798.63
2024-01-19T03:36:36.451Z,97825.03
2024-01-19T03:39:04.258Z,97807.97
2024-01-19T03:41:31.134Z,97835.53
2024-01-19T03:43:58.059Z,97813.22
2024-01-19T03:46:24.975Z,97843.63
2024-01-19T03:48:51.777Z,97807.59
2024-01-19T03:51:18.604Z,97846.88
2024-01-19T03:53:45.757Z,97855.47
2024-01-19T03:56:12.717Z,97638.09
2024-01-19T03:58:39.580Z,97860.56
2024-01-19T04:01:07.404Z,97838.25
2024-01-19T04:03:36.047Z,97863.22
2024-01-19T04:06:06.904Z,97855.88
2024-01-19T04:08:33.829Z,97851.16
2024-01-19T04:11:00.778Z,97851.25
2024-01-19T04:13:27.665Z,97853.13
2024-01-19T04:15:54.397Z,97869.16
2024-01-19T04:18:21.255Z,97871.59
2024-01-19T04:20:48.288Z,97820.69
2024-01-19T04:23:17.484Z,97866.38
2024-01-19T04:25:44.515Z,97712.41
2024-01-19T04:28:13.498Z,97854.28
2024-01-19T04:30:40.573Z,97896.41
2024-01-19T04:33:07.358Z,97880.03
2024-01-19T04:35:36.884Z,97883.03
2024-01-19T04:38:06.114Z,97883.22
2024-01-19T04:40:33.137Z,97930.16
2024-01-19T04:43:00.085Z,97931.25
2024-01-19T04:45:27.012Z,97852.09
2024-01-19T04:47:53.984Z,97859.56
2024-01-19T04:50:21.294Z,97872.44
2024-01-19T04:52:50.979Z,97855.94
2024-01-19T04:55:18.252Z,97943.09
2024-01-19T04:57:48.573Z,97931.59
2024-01-19T05:00:16.012Z,97937.72
2024-01-19T05:02:44.600Z,97955.19
2024-01-19T05:05:14.737Z,97950.59
2024-01-19T05:07:44.047Z,97957.88
2024-01-19T05:10:11.193Z,97973.19
2024-01-19T05:12:38.149Z,97948.59
2024-01-19T05:15:05.389Z,97971.19
2024-01-19T05:17:32.508Z,97986.53
2024-01-19T05:19:59.446Z,97961.72
2024-01-19T05:22:26.256Z,98011.66
2024-01-19T05:24:56.582Z,97999.38
2024-01-19T05:27:23.642Z,98017.94
2024-01-19T05:29:50.749Z,98016.28
2024-01-19T05:32:21.055Z,97921.72
2024-01-19T05:34:48.388Z,97995.56
2024-01-19T05:37:15.237Z,98014.41
2024-01-19T05:39:42.181Z,98007.75
2024-01-19T05:42:09.355Z,97921.97
2024-01-19T05:44:36.363Z,98040.84
2024-01-19T05:47:05.223Z,97976.78
2024-01-19T05:49:31.987Z,98055.50
2024-01-19T05:51:58.831Z,98040.28
2024-01-19T05:54:26.214Z,98003.63
2024-01-19T05:56:53.020Z,98064.84
2024-01-19T05:59:21.233Z,98023.50
2024-01-19T06:01:50.225Z,98050.13
2024-01-19T06:04:17.569Z,98088.28
2024-01-19T06:06:44.488Z,98088.44
2024-01-19T06:09:11.929Z,98092.88
2024-01-19T06:11:39.560Z,98022.56
2024-01-19T06:14:06.570Z,98103.28
2024-01-19T06:16:35.789Z,98144.66
2024-01-19T06:19:05.352Z,98065.06
2024-01-19T06:21:32.416Z,98114.63
2024-01-19T06:23:59.464Z,98112.97
2024-01-19T06:26:27.966Z,98116.13
2024-01-19T06:28:57.059Z,98149.44
2024-01-19T06:31:26.918Z,98103.00
2024-01-19T06:33:53.907Z,98134.38
2024-01-19T06:36:20.777Z,98142.59
2024-01-19T06:38:55.643Z,98148.75
2024-01-19T06:41:28.058Z,98149.94
2024-01-19T06:43:57.526Z,98123.03
2024-01-19T06:46:46.708Z,98090.19
2024-01-19T06:49:15.015Z,98157.50
2024-01-19T06:51:46.723Z,98175.31
2024-01-19T06:54:15.847Z,98105.59
2024-01-19T06:56:45.072Z,98162.88
2024-01-19T06:59:17.354Z,98159.59
2024-01-19T07:01:44.176Z,98165.69
2024-01-19T07:04:12.902Z,98130.25
2024-01-19T07:06:39.981Z,98169.41
2024-01-19T07:09:07.453Z,98181.94
2024-01-19T07:11:34.562Z,98155.53
2024-01-19T07:14:01.362Z,98215.34
2024-01-19T07:16:28.263Z,98193.88
2024-01-19T07:18:55.080Z,98177.25
2024-01-19T07:21:24.980Z,98204.84
2024-01-19T07:23:51.891Z,98149.16
2024-01-19T07:26:20.612Z,98185.03
2024-01-19T07:28:47.716Z,98212.53
2024-01-19T07:31:14.638Z,98190.56
2024-01-19T07:33:44.031Z,98188.69
2024-01-19T07:36:17.140Z,98123.69
2024-01-19T07:38:44.073Z,98194.16
2024-01-19T07:41:10.993Z,98156.66
2024-01-19T07:43:40.334Z,98201.97
2024-01-19T07:46:09.823Z,98216.03
2024-01-19T07:48:36.642Z,98214.56
2024-01-19T07:51:04.360Z,98189.84
2024-01-19T07:53:33.930Z,98198.22
2024-01-19T07:56:04.121Z,98224.97
2024-01-19T07:58:30.863Z,98204.00
2024-01-19T08:00:57.597Z,98194.06
2024-01-19T08:03:24.664Z,98219.75
2024-01-19T08:05:51.531Z,98241.22
2024-01-19T08:08:18.359Z,98146.47
2024-01-19T08:10:47.651Z,98225.75
2024-01-19T08:13:15.268Z,98223.91
2024-01-19T08:15:42.072Z,98250.59
2024-01-19T08:18:08.931Z,98203.38
2024-01-19T08:20:36.802Z,98258.06
2024-01-19T08:23:04.004Z,98199.69
2024-01-19T08:25:34.063Z,98251.31
2024-01-19T08:28:01.951Z,98121.09
2024-01-19T08:30:28.674Z,98223.06
2024-01-19T08:32:55.604Z,98268.06
2024-01-19T08:35:23.392Z,98262.88
2024-01-19T08:37:50.170Z,98244.91
2024-01-19T08:40:20.345Z,98272.25
2024-01-19T08:42:47.193Z,98293.06
2024-01-19T08:45:13.965Z,98288.31
2024-01-19T08:47:41.427Z,98298.09
2024-01-19T08:50:08.490Z,98317.44
2024-01-19T08:52:35.336Z,98306.72
2024-01-19T08:55:02.160Z,98289.09
2024-01-19T08:57:28.986Z,98320.13
2024-01-19T08:59:55.699Z,98298.28
2024-01-19T09:02:24.971Z,98309.31
2024-01-19T09:04:53.115Z,98306.44
2024-01-19T09:07:21.395Z,98303.84
2024-01-19T09:09:48.533Z,98323.41
2024-01-19T09:12:15.248Z,98317.13
2024-01-19T09:14:42.000Z,98279.75
2024-01-19T09:17:08.740Z,98305.69
2024-01-19T09:19:37.736Z,98290.28
2024-01-19T09:22:07.048Z,98323.69
2024-01-19T09:24:33.937Z,98266.44
2024-01-19T09:27:03.170Z,98326.28
2024-01-19T09:29:30.180Z,98333.06
2024-01-19T09:31:57.082Z,98322.56
2024-01-19T09:34:24.313Z,98313.22
2024-01-19T09:36:51.168Z,98329.53
2024-01-19T09:39:17.969Z,98287.97
2024-01-19T09:41:50.398Z,98314.97
2024-01-19T09:44:20.390Z,98321.75
2024-01-19T09:46:53.101Z,98323.75
2024-01-19T09:49:32.305Z,98329.06
2024-01-19T09:52:34.393Z,98330.63
2024-01-19T09:55:01.395Z,98304.53
2024-01-19T09:57:32.284Z,98279.19
2024-01-19T09:59:59.452Z,98297.31
2024-01-19T10:02:27.928Z,98357.22
2024-01-19T10:04:54.768Z,98334.75
2024-01-19T10:07:23.474Z,98332.44
2024-01-19T10:09:52.650Z,98333.16
2024-01-19T10:12:20.354Z,98340.63
2024-01-19T10:14:49.525Z,98337.97
2024-01-19T10:17:17.877Z,98364.81
2024-01-19T10:19:45.951Z,98323.69
2024-01-19T10:22:29.192Z,98352.34
2024-01-19T10:25:06.634Z,98325.63
2024-01-19T10:27:39.961Z,98342.91
2024-01-19T10:30:18.122Z,98334.47
2024-01-19T10:32:47.052Z,98347.97
2024-01-19T10:35:17.054Z,98377.16
2024-01-19T10:37:47.416Z,98327.44
2024-01-19T10:40:20.029Z,98354.19
2024-01-19T10:42:53.085Z,98349.34
2024-01-19T10:45:39.824Z,98202.94
2024-01-19T10:48:07.544Z,98342.16
2024-01-19T10:50:36.728Z,98334.06
2024-01-19T10:53:13.263Z,98363.38
2024-01-19T10:55:48.258Z,98371.09
2024-01-19T10:58:16.446Z,98389.66
2024-01-19T11:00:43.445Z,98358.47
2024-01-19T11:03:10.628Z,98389.16
2024-01-19T11:05:40.728Z,98419.69
2024-01-19T11:08:14.666Z,98401.06
2024-01-19T11:10:41.810Z,98392.38
2024-01-19T11:13:17.347Z,98407.34
2024-01-19T11:15:54.722Z,98402.97
2024-01-19T11:18:21.689Z,98388.63
2024-01-19T11:20:49.113Z,98407.13
2024-01-19T11:23:18.346Z,98409.84
2024-01-19T11:26:09.988Z,98409.63
2024-01-19T11:29:02.280Z,98405.53
2024-01-19T11:31:34.030Z,98406.53
2024-01-19T11:34:01.320Z,98259.78
2024-01-19T11:36:40.275Z,98404.53
2024-01-19T11:39:07.833Z,98409.13
2024-01-19T11:41:34.850Z,98412.13
2024-01-19T11:44:06.739Z,98373.00
2024-01-19T11:46:51.900Z,98405.59
2024-01-19T11:49:36.788Z,98413.91
2024-01-19T11:52:23.872Z,98427.28
2024-01-19T11:54:51.213Z,98422.75
2024-01-19T11:57:22.037Z,98386.19
2024-01-19T11:59:49.287Z,98375.91
2024-01-19T12:02:24.496Z,98416.59
2024-01-19T12:04:53.414Z,98406.22
2024-01-19T12:07:23.446Z,98427.53
2024-01-19T12:10:12.385Z,98424.75
2024-01-19T12:12:40.818Z,98372.66
2024-01-19T12:15:13.226Z,98455.66
2024-01-19T12:17:42.272Z,98448.16
2024-01-19T12:20:11.456Z,98352.72
2024-01-19T12:22:44.127Z,98426.47
2024-01-19T12:25:30.598Z,98455.13
2024-01-19T12:28:07.890Z,98480.38
2024-01-19T12:30:37.190Z,98404.47
2024-01-19T12:33:15.798Z,98412.84
2024-01-19T12:35:43.706Z,98449.31
2024-01-19T12:38:10.932Z,98467.47
2024-01-19T12:40:42.459Z,98462.59
2024-01-19T12:43:09.537Z,98485.72
2024-01-19T12:45:46.790Z,98445.81
2024-01-19T12:48:21.801Z,98498.56
2024-01-19T12:50:52.951Z,98498.91
2024-01-19T12:53:20.028Z,98496.75
2024-01-19T12:55:47.408Z,98503.66
2024-01-19T12:58:22.536Z,98516.63
2024-01-19T13:00:51.094Z,98516.25
2024-01-19T13:03:21.683Z,98523.59
2024-01-19T13:05:50.025Z,98449.16
2024-01-19T13:08:20.465Z,98483.28
2024-01-19T13:10:47.543Z,98518.50
2024-01-19T13:13:19.022Z,98518.50
2024-01-19T13:15:46.077Z,98473.72
2024-01-19T13:18:16.466Z,98525.56
2024-01-19T13:20:44.069Z,98523.81
2024-01-19T13:23:11.621Z,98471.97
2024-01-19T13:25:40.689Z,98544.84
2024-01-19T13:28:10.063Z,98519.84
2024-01-19T13:30:36.908Z,98532.94
2024-01-19T13:33:04.333Z,98388.53
2024-01-19T13:35:31.771Z,98543.78
2024-01-19T13:37:58.937Z,98483.44
2024-01-19T13:40:26.148Z,98507.53
2024-01-19T13:42:59.275Z,98531.13
2024-01-19T13:45:26.283Z,98551.44
2024-01-19T13:47:53.075Z,98524.59
2024-01-19T13:50:20.194Z,98517.16
2024-01-19T13:52:47.396Z,98541.38
2024-01-19T13:55:16.257Z,98494.81
2024-01-19T13:57:43.142Z,98501.63
2024-01-19T14:00:10.409Z,98475.66
2024-01-19T14:02:37.258Z,98474.25
2024-01-19T14:05:09.857Z,98498.75
2024-01-19T14:07:40.067Z,98537.66
2024-01-19T14:10:10.373Z,98465.03
2024-01-19T14:12:39.822Z,98538.50
2024-01-19T14:15:17.594Z,98592.47
2024-01-19T14:17:44.913Z,98556.44
2024-01-19T14:20:15.464Z,98563.72
2024-01-19T14:22:51.034Z,98527.13
2024-01-19T14:25:18.013Z,98555.47
2024-01-19T14:27:53.495Z,98527.00
2024-01-19T14:30:20.562Z,98561.50
2024-01-19T14:32:52.030Z,98596.91
2024-01-19T14:35:18.999Z,98539.81
2024-01-19T14:37:49.158Z,98555.44
2024-01-19T14:40:17.154Z,98579.06
2024-01-19T14:42:46.791Z,98444.44
2024-01-19T14:45:15.494Z,98493.84
2024-01-19T14:47:42.839Z,98518.03
2024-01-19T14:50:11.107Z,98554.53
2024-01-19T14:52:39.656Z,98527.81
2024-01-19T14:55:11.182Z,98515.13
2024-01-19T14:57:38.506Z,98553.19
2024-01-19T15:00:12.271Z,98563.69
2024-01-19T15:02:39.246Z,98539.66
2024-01-19T15:05:07.070Z,98567.22
2024-01-19T15:07:36.465Z,98588.84
2024-01-19T15:10:05.087Z,98565.50
2024-01-19T15:12:38.674Z,98520.94
2024-01-19T15:15:10.172Z,98589.34
2024-01-19T15:17:40.257Z,98574.34
2024-01-19T15:20:16.209Z,98596.00
2024-01-19T15:22:43.320Z,98576.00
2024-01-19T15:25:10.835Z,98573.53
2024-01-19T15:27:41.440Z,98580.28
2024-01-19T15:30:09.736Z,98596.94
2024-01-19T15:32:41.063Z,98568.41
2024-01-19T15:35:08.515Z,98584.84
2024-01-19T15:37:35.712Z,98664.22
2024-01-19T15:40:05.384Z,98542.91
2024-01-19T15:42:32.287Z,98597.38
2024-01-19T15:44:59.324Z,98615.06
2024-01-19T15:47:26.381Z,98588.41
2024-01-19T15:49:58.914Z,98575.13
2024-01-19T15:52:37.716Z,98602.69
2024-01-19T15:55:11.652Z,98596.81
2024-01-19T15:57:46.124Z,98542.44
2024-01-19T16:00:15.725Z,98620.91
2024-01-19T16:02:45.156Z,98531.59
2024-01-19T16:05:20.219Z,98626.81
2024-01-19T16:07:57.688Z,98603.63
2024-01-19T16:10:30.336Z,98613.59
2024-01-19T16:12:59.078Z,98561.78
2024-01-19T16:15:28.633Z,98553.59
2024-01-19T16:18:01.126Z,98634.63
2024-01-19T16:20:36.003Z,98615.28
2024-01-19T16:23:05.926Z,98239.84
2024-01-19T16:25:33.087Z,98607.69
2024-01-19T16:28:04.200Z,98653.75
2024-01-19T16:30:35.205Z,98642.97
2024-01-19T16:33:05.058Z,98664.00
2024-01-19T16:35:37.780Z,98578.13
2024-01-19T16:38:07.150Z,98672.44
2024-01-19T16:40:37.023Z,98690.81
2024-01-19T16:43:05.634Z,98653.41
2024-01-19T16:45:45.273Z,98700.34
2024-01-19T16:48:20.798Z,98645.91
2024-01-19T16:50:51.805Z,98661.84
2024-01-19T16:53:28.734Z,98682.56
2024-01-19T16:56:04.933Z,98706.75
2024-01-19T16:58:37.696Z,98712.00
2024-01-19T17:01:16.368Z,98480.84
2024-01-19T17:03:52.155Z,98694.41
2024-01-19T17:06:26.849Z,98716.09
2024-01-19T17:09:01.834Z,98610.16
2024-01-19T17:11:31.321Z,98729.59
2024-01-19T17:14:02.073Z,98727.06
2024-01-19T17:16:44.024Z,98727.75
2024-01-19T17:19:20.294Z,98569.06
2024-01-19T17:21:51.178Z,98720.09
2024-01-19T17:24:21.117Z,98714.50
2024-01-19T17:26:51.258Z,98685.13
2024-01-19T17:29:18.473Z,98745.34
2024-01-19T17:31:45.603Z,98691.34
2024-01-19T17:34:12.923Z,98705.72
2024-01-19T17:36:40.413Z,98730.69
2024-01-19T17:39:11.519Z,98711.09
2024-01-19T17:41:44.419Z,98708.13
2024-01-19T17:44:12.600Z,98646.97
2024-01-19T17:46:45.480Z,98733.22
2024-01-19T17:49:12.499Z,98688.94
2024-01-19T17:51:47.361Z,98718.13
2024-01-19T17:54:20.923Z,98692.22
2024-01-19T17:56:47.888Z,98753.16
2024-01-19T17:59:19.430Z,98750.78
2024-01-19T18:01:46.626Z,98638.03
2024-01-19T18:04:17.290Z,98695.63
2024-01-19T18:06:48.242Z,98679.13
2024-01-19T18:09:16.408Z,98689.84
2024-01-19T18:11:51.228Z,98754.34
2024-01-19T18:14:20.688Z,98724.31
2024-01-19T18:16:47.774Z,98741.09
2024-01-19T18:19:18.271Z,98766.94
2024-01-19T18:21:51.341Z,98769.72
2024-01-19T18:24:18.614Z,98758.19
2024-01-19T18:26:47.709Z,98772.28
2024-01-19T18:29:16.747Z,98768.97
2024-01-19T18:31:45.920Z,98775.41
2024-01-19T18:34:12.983Z,98748.66
2024-01-19T18:36:43.030Z,98771.16
2024-01-19T18:39:14.774Z,98758.75
2024-01-19T18:41:43.736Z,98762.91
2024-01-19T18:44:12.644Z,98787.78
2024-01-19T18:46:46.495Z,98788.63
2024-01-19T18:49:15.808Z,98766.53
2024-01-19T18:51:47.077Z,98790.72
2024-01-19T18:54:14.030Z,98793.97
2024-01-19T18:56:41.008Z,98733.53
2024-01-19T18:59:08.489Z,98727.38
2024-01-19T19:01:35.501Z,98789.28
2024-01-19T19:04:08.080Z,98761.69
2024-01-19T19:06:41.707Z,98801.88
2024-01-19T19:09:08.806Z,98795.91
2024-01-19T19:11:35.855Z,98781.59
2024-01-19T19:14:04.358Z,98738.72
2024-01-19T19:16:38.906Z,98747.97
2024-01-19T19:19:18.487Z,98774.38
2024-01-19T19:21:45.661Z,98623.06
2024-01-19T19:24:15.043Z,98770.41
2024-01-19T19:26:45.414Z,98798.81
2024-01-19T19:29:17.308Z,98692.88
2024-01-19T19:31:51.936Z,98797.41
2024-01-19T19:34:23.065Z,98752.00
2024-01-19T19:37:05.312Z,98806.47
2024-01-19T19:39:35.565Z,98805.59
2024-01-19T19:42:02.650Z,98809.00
2024-01-19T19:44:41.654Z,98793.22
2024-01-19T19:47:09.153Z,98770.63
2024-01-19T19:49:39.017Z,98818.56
2024-01-19T19:52:06.091Z,98816.91
2024-01-19T19:54:35.183Z,98812.91
2024-01-19T19:57:02.451Z,98806.06
2024-01-19T19:59:29.305Z,98771.00
2024-01-19T20:02:00.997Z,98815.25
2024-01-19T20:04:29.350Z,98822.63
2024-01-19T20:07:05.003Z,98823.81
2024-01-19T20:09:34.713Z,98760.06
2024-01-19T20:12:01.922Z,98812.53
2024-01-19T20:14:31.042Z,98821.19
2024-01-19T20:17:03.668Z,98825.31
2024-01-19T20:19:32.177Z,98821.13
2024-01-19T20:22:00.906Z,98807.75
2024-01-19T20:24:28.091Z,98832.00
2024-01-19T20:26:55.567Z,98838.22
2024-01-19T20:29:22.989Z,98835.09
2024-01-19T20:31:50.235Z,98815.72
2024-01-19T20:34:17.416Z,98771.19
2024-01-19T20:36:45.165Z,98837.19
2024-01-19T20:39:15.477Z,98830.63
2024-01-19T20:41:44.732Z,98847.72
2024-01-19T20:44:14.240Z,98856.84
2024-01-19T20:46:46.531Z,98846.91
2024-01-19T20:49:17.669Z,98864.50
2024-01-19T20:51:44.570Z,98840.28
2024-01-19T20:54:14.068Z,98858.78
2024-01-19T20:56:51.666Z,98687.88
2024-01-19T20:59:23.345Z,98863.75
2024-01-19T21:01:50.804Z,98869.56
2024-01-19T21:04:19.882Z,98831.00
2024-01-19T21:06:47.012Z,98878.75
2024-01-19T21:09:14.148Z,98802.75
2024-01-19T21:11:42.075Z,98849.78
2024-01-19T21:14:12.468Z,98884.16
2024-01-19T21:16:39.833Z,98877.63
2024-01-19T21:19:09.342Z,98861.03
2024-01-19T21:21:44.761Z,98904.53
2024-01-19T21:24:38.668Z,98899.91
2024-01-19T21:27:18.802Z,98901.06
2024-01-19T21:29:54.181Z,98913.56
2024-01-19T21:32:21.090Z,98895.81
2024-01-19T21:34:48.051Z,98915.97
2024-01-19T21:37:20.236Z,98910.16
2024-01-19T21:39:48.419Z,98917.81
2024-01-19T21:42:18.588Z,98922.78
2024-01-19T21:44:45.960Z,98944.03
2024-01-19T21:47:12.950Z,98904.59
2024-01-19T21:49:40.357Z,98899.88
2024-01-19T21:52:09.921Z,98937.22
2024-01-19T21:54:37.125Z,98928.13
2024-01-19T21:57:04.883Z,98917.94
2024-01-19T21:59:32.509Z,98942.25
2024-01-19T22:02:03.677Z,98952.25
2024-01-19T22:04:30.888Z,98872.63
2024-01-19T22:07:00.215Z,98963.97
2024-01-19T22:09:27.736Z,98963.25
2024-01-19T22:11:59.217Z,98922.53
2024-01-19T22:14:30.137Z,98953.34
2024-01-19T22:16:59.503Z,98856.31
2024-01-19T22:19:26.808Z,98930.94
2024-01-19T22:21:53.704Z,98983.75
2024-01-19T22:24:23.182Z,98963.66
2024-01-19T22:26:53.668Z,98977.00
2024-01-19T22:29:22.261Z,98901.56
2024-01-19T22:31:51.527Z,98803.44
2024-01-19T22:34:22.182Z,98919.78
2024-01-19T22:36:51.084Z,98965.88
2024-01-19T22:39:21.933Z,98970.78
2024-01-19T22:41:56.603Z,98933.25
2024-01-19T22:44:28.382Z,98983.06
2024-01-19T22:46:57.881Z,98993.16
2024-01-19T22:49:25.859Z,98952.16
2024-01-19T22:51:53.008Z,98997.53
2024-01-19T22:54:23.181Z,98962.34
2024-01-19T22:56:50.502Z,98999.56
2024-01-19T22:59:18.033Z,98960.13
2024-01-19T23:01:48.592Z,99001.19
2024-01-19T23:04:15.699Z,99004.63
2024-01-19T23:06:42.632Z,98992.06
2024-01-19T23:09:09.578Z,99001.72
2024-01-19T23:11:36.363Z,99014.09
2024-01-19T23:14:03.471Z,99003.19
2024-01-19T23:16:31.781Z,99019.19
2024-01-19T23:19:04.464Z,99002.47
2024-01-19T23:21:40.904Z,98982.25
2024-01-19T23:24:07.838Z,99002.22
2024-01-19T23:26:34.853Z,99005.41
2024-01-19T23:29:02.068Z,98997.72
2024-01-19T23:31:28.979Z,98940.78
2024-01-19T23:33:56.060Z,98848.69
2024-01-19T23:36:23.318Z,99018.97
2024-01-19T23:38:54.936Z,99006.34
2024-01-19T23:41:22.065Z,98966.97
2024-01-19T23:43:51.903Z,99006.38
2024-01-19T23:46:21.065Z,98939.09
2024-01-19T23:48:47.921Z,98991.75
2024-01-19T23:51:16.437Z,99022.69
2024-01-19T23:53:44.711Z,99016.03
2024-01-19T23:56:11.844Z,98997.66
2024-01-19T23:58:38.815Z,98944.09
